sensor_id;sensor_type;location;lat;lon;timestamp;P1;durP1;ratioP1;P2;durP2;ratioP2
26269;SDS011;15937;50.612;6.656;2023-04-03T00:02:05;2.17;;;1.95;;
26269;SDS011;15937;50.612;6.656;2023-04-03T00:06:07;3.72;;;2.13;;
26269;SDS011;15937;50.612;6.656;2023-04-03T00:10:11;4.97;;;2.38;;
26269;SDS011;15937;50.612;6.656;2023-04-03T00:14:13;4.05;;;1.98;;
26269;SDS011;15937;50.612;6.656;2023-04-03T00:18:15;5.55;;;1.88;;
26269;SDS011;15937;50.612;6.656;2023-04-03T00:22:17;3.45;;;1.95;;
26269;SDS011;15937;50.612;6.656;2023-04-03T00:26:18;4.40;;;1.73;;
26269;SDS011;15937;50.612;6.656;2023-04-03T00:30:21;2.13;;;1.88;;
26269;SDS011;15937;50.612;6.656;2023-04-03T00:34:23;10.60;;;1.95;;
26269;SDS011;15937;50.612;6.656;2023-04-03T00:38:25;2.17;;;1.88;;
26269;SDS011;15937;50.612;6.656;2023-04-03T00:42:27;3.17;;;2.10;;
26269;SDS011;15937;50.612;6.656;2023-04-03T00:46:29;3.15;;;2.13;;
26269;SDS011;15937;50.612;6.656;2023-04-03T00:50:31;3.05;;;2.10;;
26269;SDS011;15937;50.612;6.656;2023-04-03T00:54:36;3.05;;;2.28;;
26269;SDS011;15937;50.612;6.656;2023-04-03T00:58:47;2.70;;;2.50;;
26269;SDS011;15937;50.612;6.656;2023-04-03T01:02:52;2.50;;;2.28;;
26269;SDS011;15937;50.612;6.656;2023-04-03T01:06:55;5.47;;;2.72;;
26269;SDS011;15937;50.612;6.656;2023-04-03T01:10:58;7.15;;;2.65;;
26269;SDS011;15937;50.612;6.656;2023-04-03T01:15:07;5.13;;;2.42;;
26269;SDS011;15937;50.612;6.656;2023-04-03T01:19:12;6.65;;;2.60;;
26269;SDS011;15937;50.612;6.656;2023-04-03T01:23:29;2.30;;;2.10;;
26269;SDS011;15937;50.612;6.656;2023-04-03T01:27:36;6.18;;;2.63;;
26269;SDS011;15937;50.612;6.656;2023-04-03T01:31:44;8.65;;;2.55;;
26269;SDS011;15937;50.612;6.656;2023-04-03T01:35:54;6.93;;;2.38;;
26269;SDS011;15937;50.612;6.656;2023-04-03T01:39:56;5.18;;;2.00;;
26269;SDS011;15937;50.612;6.656;2023-04-03T01:43:58;4.25;;;2.60;;
26269;SDS011;15937;50.612;6.656;2023-04-03T01:47:59;12.68;;;2.53;;
26269;SDS011;15937;50.612;6.656;2023-04-03T01:52:01;4.63;;;2.20;;
26269;SDS011;15937;50.612;6.656;2023-04-03T01:56:03;6.55;;;2.72;;
26269;SDS011;15937;50.612;6.656;2023-04-03T02:00:05;3.25;;;2.40;;
26269;SDS011;15937;50.612;6.656;2023-04-03T02:04:08;10.15;;;2.63;;
26269;SDS011;15937;50.612;6.656;2023-04-03T02:08:10;4.82;;;2.33;;
26269;SDS011;15937;50.612;6.656;2023-04-03T02:12:12;4.10;;;2.22;;
26269;SDS011;15937;50.612;6.656;2023-04-03T02:16:14;6.68;;;2.33;;
26269;SDS011;15937;50.612;6.656;2023-04-03T02:20:16;3.97;;;2.50;;
26269;SDS011;15937;50.612;6.656;2023-04-03T02:24:18;7.45;;;2.63;;
26269;SDS011;15937;50.612;6.656;2023-04-03T02:28:19;3.95;;;2.33;;
26269;SDS011;15937;50.612;6.656;2023-04-03T02:32:21;4.43;;;2.50;;
26269;SDS011;15937;50.612;6.656;2023-04-03T02:36:23;7.47;;;2.53;;
26269;SDS011;15937;50.612;6.656;2023-04-03T02:40:24;7.15;;;2.80;;
26269;SDS011;15937;50.612;6.656;2023-04-03T02:44:26;7.15;;;2.53;;
26269;SDS011;15937;50.612;6.656;2023-04-03T02:48:28;3.65;;;2.40;;
26269;SDS011;15937;50.612;6.656;2023-04-03T02:52:30;4.53;;;2.63;;
26269;SDS011;15937;50.612;6.656;2023-04-03T02:56:32;3.55;;;2.40;;
26269;SDS011;15937;50.612;6.656;2023-04-03T03:00:35;3.33;;;2.60;;
26269;SDS011;15937;50.612;6.656;2023-04-03T03:04:37;3.45;;;2.33;;
26269;SDS011;15937;50.612;6.656;2023-04-03T03:08:38;3.25;;;2.20;;
26269;SDS011;15937;50.612;6.656;2023-04-03T03:12:41;4.22;;;2.75;;
26269;SDS011;15937;50.612;6.656;2023-04-03T03:16:42;3.20;;;2.38;;
26269;SDS011;15937;50.612;6.656;2023-04-03T03:20:44;3.35;;;2.33;;
26269;SDS011;15937;50.612;6.656;2023-04-03T03:24:46;10.50;;;2.70;;
26269;SDS011;15937;50.612;6.656;2023-04-03T03:28:48;9.25;;;2.97;;
26269;SDS011;15937;50.612;6.656;2023-04-03T03:32:49;10.52;;;2.80;;
26269;SDS011;15937;50.612;6.656;2023-04-03T03:36:51;12.48;;;2.90;;
26269;SDS011;15937;50.612;6.656;2023-04-03T03:40:53;3.92;;;2.92;;
26269;SDS011;15937;50.612;6.656;2023-04-03T03:44:54;7.60;;;3.40;;
26269;SDS011;15937;50.612;6.656;2023-04-03T03:48:56;5.40;;;3.45;;
26269;SDS011;15937;50.612;6.656;2023-04-03T03:52:58;7.10;;;4.32;;
26269;SDS011;15937;50.612;6.656;2023-04-03T03:56:59;7.47;;;3.70;;
26269;SDS011;15937;50.612;6.656;2023-04-03T04:01:01;6.82;;;3.33;;
26269;SDS011;15937;50.612;6.656;2023-04-03T04:05:07;5.97;;;3.25;;
26269;SDS011;15937;50.612;6.656;2023-04-03T04:09:09;7.97;;;3.38;;
26269;SDS011;15937;50.612;6.656;2023-04-03T04:13:11;10.40;;;4.97;;
26269;SDS011;15937;50.612;6.656;2023-04-03T04:17:13;9.00;;;3.30;;
26269;SDS011;15937;50.612;6.656;2023-04-03T04:21:15;8.97;;;3.80;;
26269;SDS011;15937;50.612;6.656;2023-04-03T04:25:16;5.95;;;3.50;;
26269;SDS011;15937;50.612;6.656;2023-04-03T04:29:18;16.02;;;4.50;;
26269;SDS011;15937;50.612;6.656;2023-04-03T04:33:19;13.15;;;3.88;;
26269;SDS011;15937;50.612;6.656;2023-04-03T04:37:21;10.27;;;3.55;;
26269;SDS011;15937;50.612;6.656;2023-04-03T04:41:23;21.88;;;4.07;;
26269;SDS011;15937;50.612;6.656;2023-04-03T04:45:25;13.52;;;3.72;;
26269;SDS011;15937;50.612;6.656;2023-04-03T04:49:26;5.78;;;3.20;;
26269;SDS011;15937;50.612;6.656;2023-04-03T04:53:28;4.75;;;3.08;;
26269;SDS011;15937;50.612;6.656;2023-04-03T04:57:30;10.07;;;3.83;;
26269;SDS011;15937;50.612;6.656;2023-04-03T05:01:31;9.90;;;3.42;;
26269;SDS011;15937;50.612;6.656;2023-04-03T05:05:33;6.60;;;3.50;;
26269;SDS011;15937;50.612;6.656;2023-04-03T05:13:38;4.35;;;3.95;;
26269;SDS011;15937;50.612;6.656;2023-04-03T05:17:40;11.52;;;4.63;;
26269;SDS011;15937;50.612;6.656;2023-04-03T05:21:42;8.30;;;4.72;;
26269;SDS011;15937;50.612;6.656;2023-04-03T05:25:44;7.78;;;4.90;;
26269;SDS011;15937;50.612;6.656;2023-04-03T05:29:47;10.73;;;5.90;;
26269;SDS011;15937;50.612;6.656;2023-04-03T05:33:49;5.57;;;4.03;;
26269;SDS011;15937;50.612;6.656;2023-04-03T05:37:51;11.20;;;5.03;;
26269;SDS011;15937;50.612;6.656;2023-04-03T05:41:53;6.15;;;4.35;;
26269;SDS011;15937;50.612;6.656;2023-04-03T05:45:54;21.90;;;6.55;;
26269;SDS011;15937;50.612;6.656;2023-04-03T05:49:56;12.88;;;7.05;;
26269;SDS011;15937;50.612;6.656;2023-04-03T05:54:04;10.63;;;5.60;;
26269;SDS011;15937;50.612;6.656;2023-04-03T05:58:13;9.50;;;4.85;;
26269;SDS011;15937;50.612;6.656;2023-04-03T06:02:16;5.70;;;3.88;;
26269;SDS011;15937;50.612;6.656;2023-04-03T06:06:20;10.25;;;4.60;;
26269;SDS011;15937;50.612;6.656;2023-04-03T06:10:23;6.85;;;3.75;;
26269;SDS011;15937;50.612;6.656;2023-04-03T06:14:27;13.68;;;4.10;;
26269;SDS011;15937;50.612;6.656;2023-04-03T06:18:28;13.63;;;4.10;;
26269;SDS011;15937;50.612;6.656;2023-04-03T06:22:31;6.22;;;3.38;;
26269;SDS011;15937;50.612;6.656;2023-04-03T06:26:33;5.93;;;3.15;;
26269;SDS011;15937;50.612;6.656;2023-04-03T06:30:35;7.77;;;4.30;;
26269;SDS011;15937;50.612;6.656;2023-04-03T06:34:37;14.70;;;3.38;;
26269;SDS011;15937;50.612;6.656;2023-04-03T06:38:39;7.13;;;2.95;;
26269;SDS011;15937;50.612;6.656;2023-04-03T06:42:41;10.95;;;3.03;;
26269;SDS011;15937;50.612;6.656;2023-04-03T06:46:43;6.13;;;2.90;;
26269;SDS011;15937;50.612;6.656;2023-04-03T06:50:47;8.90;;;3.38;;
26269;SDS011;15937;50.612;6.656;2023-04-03T06:54:49;4.68;;;2.97;;
26269;SDS011;15937;50.612;6.656;2023-04-03T06:58:53;3.95;;;3.22;;
26269;SDS011;15937;50.612;6.656;2023-04-03T07:02:56;6.72;;;3.67;;
26269;SDS011;15937;50.612;6.656;2023-04-03T07:06:58;6.10;;;3.08;;
26269;SDS011;15937;50.612;6.656;2023-04-03T07:11:00;7.13;;;2.50;;
26269;SDS011;15937;50.612;6.656;2023-04-03T07:15:02;5.90;;;2.55;;
26269;SDS011;15937;50.612;6.656;2023-04-03T07:19:05;5.88;;;2.80;;
26269;SDS011;15937;50.612;6.656;2023-04-03T07:23:10;6.82;;;2.50;;
26269;SDS011;15937;50.612;6.656;2023-04-03T07:27:11;8.30;;;2.90;;
26269;SDS011;15937;50.612;6.656;2023-04-03T07:31:14;3.97;;;2.20;;
26269;SDS011;15937;50.612;6.656;2023-04-03T07:35:18;5.28;;;1.90;;
26269;SDS011;15937;50.612;6.656;2023-04-03T07:39:20;2.90;;;1.85;;
26269;SDS011;15937;50.612;6.656;2023-04-03T07:43:22;6.00;;;2.67;;
26269;SDS011;15937;50.612;6.656;2023-04-03T07:47:25;7.18;;;3.00;;
26269;SDS011;15937;50.612;6.656;2023-04-03T07:51:27;9.13;;;2.80;;
26269;SDS011;15937;50.612;6.656;2023-04-03T07:55:31;5.45;;;2.63;;
26269;SDS011;15937;50.612;6.656;2023-04-03T07:59:35;6.57;;;2.40;;
26269;SDS011;15937;50.612;6.656;2023-04-03T08:03:37;10.52;;;2.30;;
26269;SDS011;15937;50.612;6.656;2023-04-03T08:07:39;7.35;;;2.60;;
26269;SDS011;15937;50.612;6.656;2023-04-03T08:11:41;8.82;;;2.08;;
26269;SDS011;15937;50.612;6.656;2023-04-03T08:15:44;7.60;;;2.33;;
26269;SDS011;15937;50.612;6.656;2023-04-03T08:19:46;7.03;;;2.33;;
26269;SDS011;15937;50.612;6.656;2023-04-03T08:23:48;15.93;;;5.07;;
26269;SDS011;15937;50.612;6.656;2023-04-03T08:27:52;7.40;;;2.15;;
26269;SDS011;15937;50.612;6.656;2023-04-03T08:31:57;5.35;;;2.30;;
26269;SDS011;15937;50.612;6.656;2023-04-03T08:35:59;7.43;;;2.42;;
26269;SDS011;15937;50.612;6.656;2023-04-03T08:40:00;7.35;;;2.10;;
26269;SDS011;15937;50.612;6.656;2023-04-03T08:48:35;11.20;;;3.20;;
26269;SDS011;15937;50.612;6.656;2023-04-03T08:52:50;8.15;;;2.58;;
26269;SDS011;15937;50.612;6.656;2023-04-03T08:56:57;8.43;;;2.35;;
26269;SDS011;15937;50.612;6.656;2023-04-03T09:01:02;5.03;;;2.20;;
26269;SDS011;15937;50.612;6.656;2023-04-03T09:05:14;4.85;;;2.13;;
26269;SDS011;15937;50.612;6.656;2023-04-03T09:09:37;8.00;;;2.88;;
26269;SDS011;15937;50.612;6.656;2023-04-03T09:18:25;5.15;;;2.00;;
26269;SDS011;15937;50.612;6.656;2023-04-03T09:22:32;7.32;;;2.17;;
26269;SDS011;15937;50.612;6.656;2023-04-03T09:26:56;10.25;;;2.50;;
26269;SDS011;15937;50.612;6.656;2023-04-03T09:31:06;10.63;;;2.70;;
26269;SDS011;15937;50.612;6.656;2023-04-03T09:35:24;7.30;;;2.47;;
26269;SDS011;15937;50.612;6.656;2023-04-03T09:39:51;7.90;;;2.10;;
26269;SDS011;15937;50.612;6.656;2023-04-03T09:43:55;5.75;;;1.80;;
26269;SDS011;15937;50.612;6.656;2023-04-03T09:48:07;6.57;;;2.60;;
26269;SDS011;15937;50.612;6.656;2023-04-03T09:52:22;5.60;;;2.17;;
26269;SDS011;15937;50.612;6.656;2023-04-03T09:56:29;6.18;;;2.22;;
26269;SDS011;15937;50.612;6.656;2023-04-03T10:00:39;10.88;;;3.05;;
26269;SDS011;15937;50.612;6.656;2023-04-03T10:04:41;13.93;;;2.42;;
26269;SDS011;15937;50.612;6.656;2023-04-03T10:08:43;7.70;;;2.50;;
26269;SDS011;15937;50.612;6.656;2023-04-03T10:13:16;12.93;;;2.50;;
26269;SDS011;15937;50.612;6.656;2023-04-03T10:27:10;3.67;;;2.10;;
26269;SDS011;15937;50.612;6.656;2023-04-03T10:35:49;8.30;;;3.17;;
26269;SDS011;15937;50.612;6.656;2023-04-03T10:40:19;7.22;;;3.40;;
26269;SDS011;15937;50.612;6.656;2023-04-03T10:48:59;6.18;;;2.30;;
26269;SDS011;15937;50.612;6.656;2023-04-03T10:53:35;9.57;;;2.15;;
26269;SDS011;15937;50.612;6.656;2023-04-03T10:57:45;4.03;;;2.35;;
26269;SDS011;15937;50.612;6.656;2023-04-03T11:01:51;8.43;;;3.03;;
26269;SDS011;15937;50.612;6.656;2023-04-03T11:05:59;5.30;;;2.42;;
26269;SDS011;15937;50.612;6.656;2023-04-03T11:10:05;8.10;;;3.75;;
26269;SDS011;15937;50.612;6.656;2023-04-03T11:14:31;11.73;;;2.93;;
26269;SDS011;15937;50.612;6.656;2023-04-03T11:18:40;6.05;;;3.00;;
26269;SDS011;15937;50.612;6.656;2023-04-03T11:22:50;5.63;;;2.33;;
26269;SDS011;15937;50.612;6.656;2023-04-03T11:27:03;8.98;;;2.45;;
26269;SDS011;15937;50.612;6.656;2023-04-03T11:31:32;6.18;;;2.30;;
26269;SDS011;15937;50.612;6.656;2023-04-03T11:35:48;6.38;;;1.80;;
26269;SDS011;15937;50.612;6.656;2023-04-03T11:39:57;6.25;;;2.50;;
26269;SDS011;15937;50.612;6.656;2023-04-03T11:44:03;5.15;;;3.17;;
26269;SDS011;15937;50.612;6.656;2023-04-03T11:56:45;7.13;;;3.22;;
26269;SDS011;15937;50.612;6.656;2023-04-03T12:00:48;4.93;;;1.70;;
26269;SDS011;15937;50.612;6.656;2023-04-03T12:17:58;9.73;;;2.75;;
26269;SDS011;15937;50.612;6.656;2023-04-03T12:22:21;8.82;;;2.47;;
26269;SDS011;15937;50.612;6.656;2023-04-03T12:26:27;6.90;;;1.83;;
26269;SDS011;15937;50.612;6.656;2023-04-03T12:30:48;4.13;;;2.15;;
26269;SDS011;15937;50.612;6.656;2023-04-03T12:34:55;7.97;;;2.70;;
26269;SDS011;15937;50.612;6.656;2023-04-03T12:44:09;5.15;;;2.05;;
26269;SDS011;15937;50.612;6.656;2023-04-03T12:48:15;8.63;;;1.85;;
26269;SDS011;15937;50.612;6.656;2023-04-03T12:52:34;2.67;;;1.40;;
26269;SDS011;15937;50.612;6.656;2023-04-03T12:56:42;10.00;;;4.10;;
26269;SDS011;15937;50.612;6.656;2023-04-03T13:00:45;3.55;;;1.80;;
26269;SDS011;15937;50.612;6.656;2023-04-03T13:04:47;6.57;;;2.03;;
26269;SDS011;15937;50.612;6.656;2023-04-03T13:12:58;6.28;;;2.08;;
26269;SDS011;15937;50.612;6.656;2023-04-03T13:17:12;4.25;;;1.70;;
26269;SDS011;15937;50.612;6.656;2023-04-03T13:21:18;4.00;;;1.70;;
26269;SDS011;15937;50.612;6.656;2023-04-03T13:25:24;6.75;;;1.95;;
26269;SDS011;15937;50.612;6.656;2023-04-03T13:29:30;5.10;;;2.03;;
26269;SDS011;15937;50.612;6.656;2023-04-03T13:33:35;3.92;;;1.55;;
26269;SDS011;15937;50.612;6.656;2023-04-03T13:37:40;9.45;;;2.33;;
26269;SDS011;15937;50.612;6.656;2023-04-03T13:41:57;3.03;;;1.30;;
26269;SDS011;15937;50.612;6.656;2023-04-03T13:54:25;12.43;;;2.80;;
26269;SDS011;15937;50.612;6.656;2023-04-03T13:58:35;3.42;;;1.77;;
26269;SDS011;15937;50.612;6.656;2023-04-03T14:02:38;5.45;;;2.10;;
26269;SDS011;15937;50.612;6.656;2023-04-03T14:06:40;3.60;;;1.83;;
26269;SDS011;15937;50.612;6.656;2023-04-03T14:10:42;2.95;;;1.75;;
26269;SDS011;15937;50.612;6.656;2023-04-03T14:14:44;2.85;;;1.73;;
26269;SDS011;15937;50.612;6.656;2023-04-03T14:18:48;3.78;;;1.75;;
26269;SDS011;15937;50.612;6.656;2023-04-03T14:22:51;8.18;;;2.17;;
26269;SDS011;15937;50.612;6.656;2023-04-03T14:26:53;5.57;;;2.00;;
26269;SDS011;15937;50.612;6.656;2023-04-03T14:30:55;5.80;;;1.60;;
26269;SDS011;15937;50.612;6.656;2023-04-03T14:34:57;3.00;;;2.22;;
26269;SDS011;15937;50.612;6.656;2023-04-03T14:39:00;3.13;;;1.77;;
26269;SDS011;15937;50.612;6.656;2023-04-03T14:47:13;9.45;;;2.30;;
26269;SDS011;15937;50.612;6.656;2023-04-03T14:51:31;3.92;;;1.77;;
26269;SDS011;15937;50.612;6.656;2023-04-03T14:55:33;3.97;;;1.80;;
26269;SDS011;15937;50.612;6.656;2023-04-03T14:59:36;6.18;;;1.70;;
26269;SDS011;15937;50.612;6.656;2023-04-03T15:03:37;4.22;;;1.98;;
26269;SDS011;15937;50.612;6.656;2023-04-03T15:07:44;6.10;;;1.88;;
26269;SDS011;15937;50.612;6.656;2023-04-03T15:11:50;6.10;;;2.30;;
26269;SDS011;15937;50.612;6.656;2023-04-03T15:15:53;6.00;;;1.80;;
26269;SDS011;15937;50.612;6.656;2023-04-03T15:19:55;4.05;;;1.70;;
26269;SDS011;15937;50.612;6.656;2023-04-03T15:23:57;5.25;;;2.03;;
26269;SDS011;15937;50.612;6.656;2023-04-03T15:28:02;3.42;;;2.08;;
26269;SDS011;15937;50.612;6.656;2023-04-03T15:32:04;5.63;;;1.80;;
26269;SDS011;15937;50.612;6.656;2023-04-03T15:36:06;7.15;;;1.73;;
26269;SDS011;15937;50.612;6.656;2023-04-03T15:40:28;4.88;;;1.80;;
26269;SDS011;15937;50.612;6.656;2023-04-03T15:44:30;4.28;;;1.38;;
26269;SDS011;15937;50.612;6.656;2023-04-03T15:48:32;6.93;;;2.25;;
26269;SDS011;15937;50.612;6.656;2023-04-03T15:52:35;3.30;;;2.00;;
26269;SDS011;15937;50.612;6.656;2023-04-03T15:56:37;6.10;;;1.58;;
26269;SDS011;15937;50.612;6.656;2023-04-03T16:00:38;7.20;;;2.10;;
26269;SDS011;15937;50.612;6.656;2023-04-03T16:04:41;3.78;;;1.85;;
26269;SDS011;15937;50.612;6.656;2023-04-03T16:08:43;5.38;;;1.90;;
26269;SDS011;15937;50.612;6.656;2023-04-03T16:12:45;5.53;;;1.85;;
26269;SDS011;15937;50.612;6.656;2023-04-03T16:16:46;3.60;;;1.85;;
26269;SDS011;15937;50.612;6.656;2023-04-03T16:20:48;4.18;;;1.70;;
26269;SDS011;15937;50.612;6.656;2023-04-03T16:24:50;3.58;;;1.67;;
26269;SDS011;15937;50.612;6.656;2023-04-03T16:28:53;5.03;;;1.95;;
26269;SDS011;15937;50.612;6.656;2023-04-03T16:32:56;9.90;;;2.10;;
26269;SDS011;15937;50.612;6.656;2023-04-03T16:36:58;5.57;;;1.90;;
26269;SDS011;15937;50.612;6.656;2023-04-03T16:41:00;4.90;;;2.13;;
26269;SDS011;15937;50.612;6.656;2023-04-03T16:45:05;4.72;;;2.30;;
26269;SDS011;15937;50.612;6.656;2023-04-03T16:49:08;5.25;;;3.03;;
26269;SDS011;15937;50.612;6.656;2023-04-03T16:53:10;3.15;;;1.88;;
26269;SDS011;15937;50.612;6.656;2023-04-03T16:57:12;4.10;;;2.70;;
26269;SDS011;15937;50.612;6.656;2023-04-03T17:01:15;4.68;;;2.42;;
26269;SDS011;15937;50.612;6.656;2023-04-03T17:05:18;6.22;;;2.42;;
26269;SDS011;15937;50.612;6.656;2023-04-03T17:09:20;3.45;;;2.10;;
26269;SDS011;15937;50.612;6.656;2023-04-03T17:17:32;10.20;;;2.55;;
26269;SDS011;15937;50.612;6.656;2023-04-03T17:21:34;9.73;;;1.83;;
26269;SDS011;15937;50.612;6.656;2023-04-03T17:25:36;13.27;;;3.10;;
26269;SDS011;15937;50.612;6.656;2023-04-03T17:29:38;14.05;;;5.43;;
26269;SDS011;15937;50.612;6.656;2023-04-03T17:33:40;8.38;;;2.28;;
26269;SDS011;15937;50.612;6.656;2023-04-03T17:37:42;10.63;;;2.72;;
26269;SDS011;15937;50.612;6.656;2023-04-03T17:41:43;9.95;;;2.80;;
26269;SDS011;15937;50.612;6.656;2023-04-03T17:45:49;6.40;;;2.45;;
26269;SDS011;15937;50.612;6.656;2023-04-03T17:49:51;10.65;;;5.18;;
26269;SDS011;15937;50.612;6.656;2023-04-03T17:53:53;11.13;;;4.85;;
26269;SDS011;15937;50.612;6.656;2023-04-03T17:57:55;14.05;;;6.68;;
26269;SDS011;15937;50.612;6.656;2023-04-03T18:02:00;13.57;;;6.70;;
26269;SDS011;15937;50.612;6.656;2023-04-03T18:06:03;11.20;;;4.75;;
26269;SDS011;15937;50.612;6.656;2023-04-03T18:10:06;8.32;;;3.85;;
26269;SDS011;15937;50.612;6.656;2023-04-03T18:18:11;8.13;;;4.65;;
26269;SDS011;15937;50.612;6.656;2023-04-03T18:22:13;8.90;;;4.05;;
26269;SDS011;15937;50.612;6.656;2023-04-03T18:26:17;6.00;;;3.47;;
26269;SDS011;15937;50.612;6.656;2023-04-03T18:30:21;4.32;;;2.60;;
26269;SDS011;15937;50.612;6.656;2023-04-03T18:34:23;8.33;;;4.10;;
26269;SDS011;15937;50.612;6.656;2023-04-03T18:38:25;12.63;;;3.42;;
26269;SDS011;15937;50.612;6.656;2023-04-03T18:42:26;10.00;;;4.13;;
26269;SDS011;15937;50.612;6.656;2023-04-03T18:46:28;6.32;;;3.30;;
26269;SDS011;15937;50.612;6.656;2023-04-03T18:50:33;9.07;;;3.83;;
26269;SDS011;15937;50.612;6.656;2023-04-03T18:54:35;9.48;;;3.17;;
26269;SDS011;15937;50.612;6.656;2023-04-03T18:58:37;6.03;;;2.70;;
26269;SDS011;15937;50.612;6.656;2023-04-03T19:02:39;4.15;;;1.80;;
26269;SDS011;15937;50.612;6.656;2023-04-03T19:06:41;10.07;;;2.30;;
26269;SDS011;15937;50.612;6.656;2023-04-03T19:10:43;10.25;;;2.35;;
26269;SDS011;15937;50.612;6.656;2023-04-03T19:14:44;3.53;;;1.80;;
26269;SDS011;15937;50.612;6.656;2023-04-03T19:18:46;6.43;;;2.42;;
26269;SDS011;15937;50.612;6.656;2023-04-03T19:22:48;10.25;;;4.05;;
26269;SDS011;15937;50.612;6.656;2023-04-03T19:26:50;9.43;;;2.35;;
26269;SDS011;15937;50.612;6.656;2023-04-03T19:30:52;9.70;;;2.30;;
26269;SDS011;15937;50.612;6.656;2023-04-03T19:34:55;6.00;;;2.63;;
26269;SDS011;15937;50.612;6.656;2023-04-03T19:38:58;7.35;;;2.75;;
26269;SDS011;15937;50.612;6.656;2023-04-03T19:42:59;6.45;;;2.75;;
26269;SDS011;15937;50.612;6.656;2023-04-03T19:47:02;4.00;;;2.25;;
26269;SDS011;15937;50.612;6.656;2023-04-03T19:51:04;6.90;;;2.75;;
26269;SDS011;15937;50.612;6.656;2023-04-03T19:55:08;5.93;;;3.03;;
26269;SDS011;15937;50.612;6.656;2023-04-03T19:59:10;8.60;;;2.70;;
26269;SDS011;15937;50.612;6.656;2023-04-03T20:03:12;5.53;;;2.63;;
26269;SDS011;15937;50.612;6.656;2023-04-03T20:07:15;21.52;;;6.78;;
26269;SDS011;15937;50.612;6.656;2023-04-03T20:11:16;19.00;;;7.50;;
26269;SDS011;15937;50.612;6.656;2023-04-03T20:15:18;14.82;;;5.15;;
26269;SDS011;15937;50.612;6.656;2023-04-03T20:19:21;8.32;;;2.88;;
26269;SDS011;15937;50.612;6.656;2023-04-03T20:23:27;13.65;;;5.25;;
26269;SDS011;15937;50.612;6.656;2023-04-03T20:27:30;15.77;;;6.53;;
26269;SDS011;15937;50.612;6.656;2023-04-03T20:31:32;10.32;;;3.88;;
26269;SDS011;15937;50.612;6.656;2023-04-03T20:35:34;10.57;;;3.67;;
26269;SDS011;15937;50.612;6.656;2023-04-03T20:39:36;23.23;;;4.80;;
26269;SDS011;15937;50.612;6.656;2023-04-03T20:43:38;4.60;;;2.92;;
26269;SDS011;15937;50.612;6.656;2023-04-03T20:47:40;2.72;;;1.95;;
26269;SDS011;15937;50.612;6.656;2023-04-03T20:51:42;8.55;;;2.35;;
26269;SDS011;15937;50.612;6.656;2023-04-03T20:55:54;5.55;;;2.38;;
26269;SDS011;15937;50.612;6.656;2023-04-03T20:59:56;7.32;;;2.15;;
26269;SDS011;15937;50.612;6.656;2023-04-03T21:04:01;9.07;;;2.53;;
26269;SDS011;15937;50.612;6.656;2023-04-03T21:21:28;9.07;;;2.40;;
26269;SDS011;15937;50.612;6.656;2023-04-03T21:25:33;5.00;;;1.92;;
26269;SDS011;15937;50.612;6.656;2023-04-03T21:29:35;5.47;;;1.92;;
26269;SDS011;15937;50.612;6.656;2023-04-03T21:33:37;8.07;;;2.58;;
26269;SDS011;15937;50.612;6.656;2023-04-03T21:37:38;3.53;;;2.00;;
26269;SDS011;15937;50.612;6.656;2023-04-03T21:41:40;10.45;;;2.15;;
26269;SDS011;15937;50.612;6.656;2023-04-03T21:45:42;7.78;;;2.72;;
26269;SDS011;15937;50.612;6.656;2023-04-03T21:49:44;11.55;;;2.85;;
26269;SDS011;15937;50.612;6.656;2023-04-03T21:53:51;6.75;;;3.00;;
26269;SDS011;15937;50.612;6.656;2023-04-03T21:57:56;7.35;;;3.17;;
26269;SDS011;15937;50.612;6.656;2023-04-03T22:01:58;10.40;;;2.60;;
26269;SDS011;15937;50.612;6.656;2023-04-03T22:06:02;9.23;;;2.95;;
26269;SDS011;15937;50.612;6.656;2023-04-03T22:10:04;6.10;;;2.55;;
26269;SDS011;15937;50.612;6.656;2023-04-03T22:18:09;7.13;;;3.25;;
26269;SDS011;15937;50.612;6.656;2023-04-03T22:22:11;15.37;;;2.77;;
26269;SDS011;15937;50.612;6.656;2023-04-03T22:26:13;10.10;;;2.63;;
26269;SDS011;15937;50.612;6.656;2023-04-03T22:30:15;6.90;;;2.80;;
26269;SDS011;15937;50.612;6.656;2023-04-03T22:34:16;6.13;;;2.25;;
26269;SDS011;15937;50.612;6.656;2023-04-03T22:38:19;10.73;;;3.72;;
26269;SDS011;15937;50.612;6.656;2023-04-03T22:42:22;3.53;;;2.38;;
26269;SDS011;15937;50.612;6.656;2023-04-03T22:46:24;6.80;;;2.95;;
26269;SDS011;15937;50.612;6.656;2023-04-03T22:50:26;6.47;;;2.95;;
26269;SDS011;15937;50.612;6.656;2023-04-03T22:54:28;7.28;;;2.75;;
26269;SDS011;15937;50.612;6.656;2023-04-03T22:58:30;4.78;;;2.50;;
26269;SDS011;15937;50.612;6.656;2023-04-03T23:02:31;6.38;;;3.05;;
26269;SDS011;15937;50.612;6.656;2023-04-03T23:06:33;6.03;;;3.15;;
26269;SDS011;15937;50.612;6.656;2023-04-03T23:10:35;2.88;;;2.22;;
26269;SDS011;15937;50.612;6.656;2023-04-03T23:14:37;6.35;;;2.47;;
26269;SDS011;15937;50.612;6.656;2023-04-03T23:18:39;4.50;;;2.42;;
26269;SDS011;15937;50.612;6.656;2023-04-03T23:22:43;6.20;;;2.80;;
26269;SDS011;15937;50.612;6.656;2023-04-03T23:26:45;6.55;;;2.15;;
26269;SDS011;15937;50.612;6.656;2023-04-03T23:30:47;5.70;;;2.22;;
26269;SDS011;15937;50.612;6.656;2023-04-03T23:34:51;3.25;;;2.00;;
26269;SDS011;15937;50.612;6.656;2023-04-03T23:38:56;7.03;;;2.60;;
26269;SDS011;15937;50.612;6.656;2023-04-03T23:42:57;5.60;;;2.80;;
26269;SDS011;15937;50.612;6.656;2023-04-03T23:46:59;5.07;;;2.15;;
26269;SDS011;15937;50.612;6.656;2023-04-03T23:51:01;4.78;;;2.25;;
26269;SDS011;15937;50.612;6.656;2023-04-03T23:55:03;4.50;;;2.05;;
26269;SDS011;15937;50.612;6.656;2023-04-03T23:59:06;9.77;;;2.42;;
